Time;durP1;ratioP1;P1;durP2;ratioP2;P2;SDS_P1;SDS_P2;PMS_P1;PMS_P2;Temp;Humidity;BMP_temperature;BMP_pressure;BME280_temperature;BME280_humidity;BME280_pressure;Samples;Min_cycle;Max_cycle;Signal;HPM_P1;HPM_P2
2023/12/19 00:00:17;;;;;;;13.43;7.45;;;5.50;99.90;;;;;;5068677;28;20184;-51
2023/12/19 00:02:43;;;;;;;11.98;7.00;;;5.50;99.90;;;;;;5068841;28;20264;-55
2023/12/19 00:05:09;;;;;;;11.75;6.95;;;5.60;99.90;;;;;;5068617;28;20174;-47
2023/12/19 00:07:35;;;;;;;11.00;6.95;;;5.60;99.90;;;;;;5068773;28;20533;-49
2023/12/19 00:10:00;;;;;;;10.52;6.90;;;5.50;99.90;;;;;;5069036;28;20165;-52
2023/12/19 00:12:26;;;;;;;14.43;7.15;;;5.60;99.90;;;;;;5068819;28;20170;-52
2023/12/19 00:14:51;;;;;;;11.50;7.43;;;5.60;99.90;;;;;;5068526;28;21342;-50
2023/12/19 00:17:17;;;;;;;11.50;7.15;;;5.50;99.90;;;;;;5068664;28;20222;-50
2023/12/19 00:19:43;;;;;;;12.30;7.60;;;5.60;99.90;;;;;;5068390;28;20167;-55
2023/12/19 00:22:08;;;;;;;12.38;7.28;;;5.50;99.90;;;;;;5068374;28;20166;-55
2023/12/19 00:24:34;;;;;;;11.45;7.18;;;5.60;99.90;;;;;;5068194;28;20300;-46
2023/12/19 00:26:59;;;;;;;11.85;7.38;;;5.60;99.90;;;;;;5068710;28;20202;-55
2023/12/19 00:29:25;;;;;;;13.18;7.07;;;5.60;99.90;;;;;;5068259;28;20170;-56
2023/12/19 00:31:51;;;;;;;13.95;7.15;;;5.70;99.90;;;;;;5068369;28;20241;-54
2023/12/19 00:34:17;;;;;;;9.85;5.50;;;5.80;99.90;;;;;;5068104;28;20210;-55
2023/12/19 00:36:43;;;;;;;10.25;6.20;;;5.80;99.90;;;;;;5068420;28;20250;-58
2023/12/19 00:39:09;;;;;;;10.30;5.85;;;5.90;99.90;;;;;;5068027;28;20596;-52
2023/12/19 00:41:34;;;;;;;8.88;6.32;;;5.90;99.90;;;;;;5067876;28;20530;-58
2023/12/19 00:44:01;;;;;;;9.77;6.50;;;5.90;99.90;;;;;;5067001;28;20173;-55
2023/12/19 00:46:26;;;;;;;12.55;6.15;;;5.80;99.90;;;;;;5067833;28;20576;-54
2023/12/19 00:48:52;;;;;;;12.40;6.40;;;5.80;99.90;;;;;;5067783;28;20166;-58
2023/12/19 00:51:17;;;;;;;9.75;6.38;;;5.80;99.90;;;;;;5066401;28;20199;-56
2023/12/19 00:53:43;;;;;;;10.23;6.13;;;6.00;99.90;;;;;;5067288;28;20264;-56
2023/12/19 00:56:09;;;;;;;9.70;6.18;;;6.00;99.90;;;;;;5067340;28;20189;-56
2023/12/19 00:58:39;;;;;;;9.52;5.78;;;6.00;99.90;;;;;;5068100;28;20170;-57
2023/12/19 01:01:08;;;;;;;8.95;6.55;;;5.80;99.90;;;;;;5067293;28;20166;-51
2023/12/19 01:03:34;;;;;;;9.60;5.97;;;5.80;99.90;;;;;;5067106;28;20173;-51
2023/12/19 01:06:01;;;;;;;8.93;5.13;;;5.80;99.90;;;;;;5058984;28;20199;-54
2023/12/19 01:08:27;;;;;;;9.20;5.97;;;6.00;99.90;;;;;;5054685;28;20167;-56
2023/12/19 01:10:53;;;;;;;10.15;5.68;;;5.90;99.90;;;;;;5054116;28;20537;-54
2023/12/19 01:13:19;;;;;;;9.63;6.63;;;6.00;99.90;;;;;;5054000;28;20272;-56
2023/12/19 01:15:44;;;;;;;11.20;6.50;;;6.00;99.90;;;;;;5054108;28;20613;-54
2023/12/19 01:18:10;;;;;;;11.60;6.63;;;5.90;99.90;;;;;;5054042;28;20166;-55
2023/12/19 01:20:35;;;;;;;8.38;6.05;;;6.10;99.90;;;;;;5054137;28;20163;-56
2023/12/19 01:23:01;;;;;;;9.00;5.55;;;6.00;99.90;;;;;;5054954;28;20240;-54
2023/12/19 01:25:27;;;;;;;8.20;6.20;;;6.10;99.90;;;;;;5053681;28;20534;-49
2023/12/19 01:27:52;;;;;;;8.65;5.80;;;6.00;99.90;;;;;;5053582;28;20186;-51
2023/12/19 01:30:18;;;;;;;7.60;5.35;;;5.90;99.90;;;;;;5053907;28;20170;-52
2023/12/19 01:32:43;;;;;;;8.98;4.40;;;6.20;99.90;;;;;;5053787;28;20181;-49
2023/12/19 01:35:09;;;;;;;7.22;5.25;;;6.20;99.90;;;;;;5053654;28;20202;-51
2023/12/19 01:37:34;;;;;;;9.32;5.05;;;6.20;99.90;;;;;;5053772;28;20617;-55
2023/12/19 01:40:00;;;;;;;8.27;5.43;;;6.00;99.90;;;;;;5054263;28;20166;-49
2023/12/19 01:42:26;;;;;;;7.68;4.82;;;6.20;99.90;;;;;;5053626;28;20246;-48
2023/12/19 01:45:08;;;;;;;7.70;5.57;;;6.30;99.90;;;;;;5053496;28;20179;-48
2023/12/19 01:47:34;;;;;;;8.38;4.50;;;6.20;99.90;;;;;;5053532;28;20591;-49
2023/12/19 01:50:00;;;;;;;7.30;5.18;;;6.10;99.90;;;;;;5054053;28;20187;-48
2023/12/19 01:52:25;;;;;;;10.73;5.20;;;6.10;99.90;;;;;;5053275;28;20657;-49
2023/12/19 01:54:52;;;;;;;7.10;4.70;;;6.30;99.90;;;;;;5052828;28;20301;-47
2023/12/19 01:57:17;;;;;;;10.85;5.68;;;6.10;99.90;;;;;;5053552;28;20213;-47
2023/12/19 01:59:44;;;;;;;10.85;5.68;;;6.30;99.90;;;;;;5053221;28;20638;-50
2023/12/19 02:02:09;;;;;;;9.45;5.55;;;6.10;99.90;;;;;;5052964;28;20202;-51
2023/12/19 02:04:35;;;;;;;9.40;5.03;;;6.30;99.90;;;;;;5053094;28;20209;-47
2023/12/19 02:07:01;;;;;;;6.47;4.93;;;6.20;99.90;;;;;;5053204;28;20245;-47
2023/12/19 02:09:27;;;;;;;10.23;4.80;;;6.10;99.90;;;;;;5052838;28;20163;-47
2023/12/19 02:11:52;;;;;;;7.30;4.50;;;6.30;99.90;;;;;;5052898;28;20669;-48
2023/12/19 02:14:18;;;;;;;5.60;4.43;;;6.20;99.90;;;;;;5052928;28;20210;-53
2023/12/19 02:16:43;;;;;;;8.52;5.30;;;6.40;99.90;;;;;;5052121;28;20622;-47
2023/12/19 02:19:12;;;;;;;7.28;4.65;;;6.30;99.90;;;;;;5052499;28;20220;-48
2023/12/19 02:21:37;;;;;;;7.40;4.65;;;6.40;99.90;;;;;;5052884;28;20181;-48
2023/12/19 02:24:04;;;;;;;6.82;4.97;;;6.20;99.90;;;;;;5052583;28;20179;-47
2023/12/19 02:26:30;;;;;;;6.03;4.05;;;6.20;99.90;;;;;;5053332;28;20181;-50
2023/12/19 02:28:56;;;;;;;4.55;3.90;;;6.40;99.90;;;;;;5051540;28;20163;-50
2023/12/19 02:31:22;;;;;;;7.38;3.90;;;6.20;99.90;;;;;;5052787;28;20194;-47
2023/12/19 02:33:47;;;;;;;5.18;3.70;;;6.20;99.90;;;;;;5052799;28;20238;-52
2023/12/19 02:36:14;;;;;;;5.57;3.97;;;6.40;99.90;;;;;;5052825;28;20237;-49
2023/12/19 02:38:40;;;;;;;8.55;4.38;;;6.50;99.90;;;;;;5052610;28;20246;-54
2023/12/19 02:41:07;;;;;;;6.68;4.35;;;6.40;99.90;;;;;;5052492;28;20258;-53
2023/12/19 02:43:34;;;;;;;5.70;3.70;;;6.20;99.90;;;;;;5052655;28;20250;-49
2023/12/19 02:45:59;;;;;;;6.10;4.25;;;6.50;99.90;;;;;;5052803;28;20170;-50
2023/12/19 02:48:25;;;;;;;6.15;4.43;;;6.30;99.90;;;;;;5052277;28;20174;-49
2023/12/19 02:50:50;;;;;;;5.22;3.55;;;6.50;99.90;;;;;;5052215;28;20179;-57
2023/12/19 02:53:16;;;;;;;4.97;3.88;;;6.40;99.90;;;;;;5051991;28;20174;-48
2023/12/19 02:55:41;;;;;;;7.30;4.53;;;6.50;99.90;;;;;;5051862;28;20174;-49
2023/12/19 02:58:07;;;;;;;10.43;5.65;;;6.50;99.90;;;;;;5052048;28;20167;-47
2023/12/19 03:00:33;;;;;;;6.10;4.65;;;6.40;99.90;;;;;;5051734;28;20178;-46
2023/12/19 03:02:58;;;;;;;7.72;4.35;;;6.50;99.90;;;;;;5052426;28;20163;-47
2023/12/19 03:05:24;;;;;;;7.32;4.57;;;6.40;99.90;;;;;;5052232;28;20162;-53
2023/12/19 03:07:50;;;;;;;5.22;4.18;;;6.40;99.90;;;;;;5051935;28;20167;-47
2023/12/19 03:10:16;;;;;;;6.50;4.50;;;6.50;99.90;;;;;;5050588;28;20163;-56
2023/12/19 03:12:41;;;;;;;5.85;4.65;;;6.70;99.90;;;;;;5051919;28;20181;-51
2023/12/19 03:15:07;;;;;;;7.05;5.10;;;6.70;99.90;;;;;;5051957;28;20210;-55
2023/12/19 03:17:33;;;;;;;11.27;6.78;;;6.50;99.90;;;;;;5052043;28;20185;-55
2023/12/19 03:19:59;;;;;;;7.53;5.50;;;6.50;99.90;;;;;;5052399;28;20170;-55
2023/12/19 03:22:24;;;;;;;9.40;6.18;;;6.40;99.90;;;;;;5051669;28;20167;-53
2023/12/19 03:24:50;;;;;;;8.20;5.63;;;6.40;99.90;;;;;;5051697;28;20614;-55
2023/12/19 03:27:16;;;;;;;8.63;5.32;;;6.30;99.90;;;;;;5050083;28;20174;-53
2023/12/19 03:29:42;;;;;;;10.88;6.28;;;6.40;99.90;;;;;;5051478;28;20253;-47
2023/12/19 03:32:08;;;;;;;12.43;7.05;;;6.30;99.90;;;;;;5051827;28;20166;-54
2023/12/19 03:34:35;;;;;;;7.65;6.13;;;6.30;99.90;;;;;;5051403;28;20657;-53
2023/12/19 03:37:01;;;;;;;9.05;6.10;;;6.40;99.90;;;;;;5051873;28;20304;-58
2023/12/19 03:39:26;;;;;;;7.95;5.80;;;6.30;99.90;;;;;;5051407;28;20249;-58
2023/12/19 03:41:52;;;;;;;7.13;6.03;;;6.30;99.90;;;;;;5051424;28;20245;-58
2023/12/19 03:44:18;;;;;;;8.88;5.90;;;6.10;99.90;;;;;;5051440;28;20158;-55
2023/12/19 03:46:43;;;;;;;8.88;6.38;;;6.30;99.90;;;;;;5051366;28;20177;-58
2023/12/19 03:49:09;;;;;;;7.80;5.95;;;6.30;99.90;;;;;;5051727;28;20175;-56
2023/12/19 03:51:34;;;;;;;8.57;7.13;;;6.30;99.90;;;;;;5051287;28;20550;-55
2023/12/19 03:54:00;;;;;;;9.23;6.93;;;6.10;99.90;;;;;;5051653;28;20218;-51
2023/12/19 03:56:25;;;;;;;9.75;7.00;;;6.10;99.90;;;;;;5051061;28;20180;-50
2023/12/19 03:58:51;;;;;;;10.25;6.55;;;6.20;99.90;;;;;;5051162;28;21147;-57
2023/12/19 04:01:18;;;;;;;9.50;6.00;;;6.00;99.90;;;;;;5051242;28;20560;-58
2023/12/19 04:03:44;;;;;;;11.75;6.00;;;6.20;99.90;;;;;;5051195;28;20633;-55
2023/12/19 04:06:10;;;;;;;8.73;5.53;;;6.30;99.90;;;;;;5051213;28;20217;-48
2023/12/19 04:08:35;;;;;;;10.88;5.90;;;6.40;99.90;;;;;;5051226;28;20202;-58
2023/12/19 04:11:01;;;;;;;6.45;5.57;;;6.30;99.90;;;;;;5051621;28;20692;-58
2023/12/19 04:13:27;;;;;;;9.20;5.60;;;6.00;99.90;;;;;;5051587;28;20278;-48
2023/12/19 04:15:52;;;;;;;10.38;5.80;;;6.30;99.90;;;;;;5051185;28;20181;-47
2023/12/19 04:18:18;;;;;;;9.02;5.00;;;6.30;99.90;;;;;;5051172;28;20577;-48
2023/12/19 04:20:43;;;;;;;6.20;4.65;;;6.40;99.90;;;;;;5051084;28;20517;-46
2023/12/19 04:23:09;;;;;;;5.57;4.47;;;6.50;99.90;;;;;;5051047;28;20644;-48
2023/12/19 04:25:35;;;;;;;7.55;4.45;;;6.40;99.90;;;;;;5050771;28;20182;-47
2023/12/19 04:28:00;;;;;;;6.88;4.60;;;6.50;99.90;;;;;;5051465;28;20242;-47
2023/12/19 04:30:26;;;;;;;9.95;4.63;;;6.30;99.90;;;;;;5050963;28;20668;-48
2023/12/19 04:32:52;;;;;;;8.05;4.65;;;6.30;99.90;;;;;;5050933;28;20193;-47
2023/12/19 04:35:17;;;;;;;7.18;4.93;;;6.30;99.90;;;;;;5051070;28;20209;-47
2023/12/19 04:37:43;;;;;;;7.70;5.05;;;6.30;99.90;;;;;;5050914;28;20258;-48
2023/12/19 04:40:09;;;;;;;6.28;4.30;;;6.50;99.90;;;;;;5051385;28;20170;-49
2023/12/19 04:42:35;;;;;;;8.13;4.50;;;6.50;99.90;;;;;;5054757;28;20236;-48
2023/12/19 04:45:01;;;;;;;6.18;4.35;;;6.30;99.90;;;;;;5055155;28;20258;-47
2023/12/19 04:47:26;;;;;;;6.20;5.07;;;6.40;99.90;;;;;;5055221;28;20254;-47
2023/12/19 04:49:52;;;;;;;7.00;5.30;;;6.50;99.90;;;;;;5054791;28;20178;-55
2023/12/19 04:52:17;;;;;;;7.07;4.13;;;6.70;99.90;;;;;;5054492;28;20175;-57
2023/12/19 04:54:45;;;;;;;9.15;4.75;;;6.70;99.90;;;;;;5054388;28;20229;-57
2023/12/19 04:57:11;;;;;;;6.25;4.45;;;6.70;99.90;;;;;;5054131;28;20745;-55
2023/12/19 04:59:36;;;;;;;10.55;4.75;;;6.60;99.90;;;;;;5054368;28;20261;-58
2023/12/19 05:02:02;;;;;;;7.78;4.10;;;6.80;99.90;;;;;;5054299;28;20170;-48
2023/12/19 05:04:27;;;;;;;6.53;5.28;;;6.60;99.90;;;;;;5054560;28;20183;-56
2023/12/19 05:06:53;;;;;;;7.75;4.32;;;7.00;99.90;;;;;;5054459;28;20162;-52
2023/12/19 05:09:20;;;;;;;4.95;4.45;;;7.00;99.90;;;;;;5054157;28;20167;-53
2023/12/19 05:11:45;;;;;;;4.50;4.10;;;6.70;99.90;;;;;;5054353;28;20174;-57
2023/12/19 05:14:11;;;;;;;6.55;4.00;;;7.00;99.90;;;;;;5054013;28;20435;-57
2023/12/19 05:16:37;;;;;;;7.18;4.72;;;7.00;99.90;;;;;;5054302;28;20181;-53
2023/12/19 05:19:04;;;;;;;7.80;3.88;;;7.00;99.90;;;;;;5053917;28;20171;-52
2023/12/19 05:21:35;;;;;;;5.47;4.43;;;7.10;99.90;;;;;;5054449;28;20162;-55
2023/12/19 05:24:01;;;;;;;7.15;4.10;;;7.10;99.90;;;;;;5054332;28;20166;-53
2023/12/19 05:26:26;;;;;;;5.63;4.22;;;7.10;99.90;;;;;;5053830;28;20211;-52
2023/12/19 05:28:54;;;;;;;4.63;3.75;;;7.10;99.90;;;;;;5052427;28;20575;-52
2023/12/19 05:31:20;;;;;;;5.53;4.03;;;7.10;99.90;;;;;;5053168;28;20171;-58
2023/12/19 05:33:46;;;;;;;5.88;4.20;;;7.20;99.90;;;;;;5052884;28;20197;-51
2023/12/19 05:36:12;;;;;;;6.10;4.15;;;7.10;99.90;;;;;;5053185;28;20175;-56
2023/12/19 05:38:38;;;;;;;7.22;4.32;;;6.90;99.90;;;;;;5051583;28;20159;-56
2023/12/19 05:41:04;;;;;;;8.13;5.00;;;7.00;99.90;;;;;;5052480;28;20171;-55
2023/12/19 05:43:30;;;;;;;4.90;3.67;;;7.00;99.90;;;;;;5052994;28;20174;-53
2023/12/19 05:45:55;;;;;;;6.97;4.45;;;7.00;99.90;;;;;;5052991;28;20223;-56
2023/12/19 05:48:22;;;;;;;11.35;6.07;;;7.00;99.90;;;;;;5052746;28;20630;-50
2023/12/19 05:50:48;;;;;;;10.60;7.38;;;7.10;99.90;;;;;;5052858;28;20324;-50
2023/12/19 05:53:14;;;;;;;9.80;7.43;;;7.30;99.90;;;;;;5052321;28;20621;-50
2023/12/19 05:55:39;;;;;;;13.65;9.15;;;7.30;99.90;;;;;;5052601;28;20185;-49
2023/12/19 05:58:05;;;;;;;11.00;7.18;;;7.30;99.90;;;;;;5052728;28;20178;-50
2023/12/19 06:00:30;;;;;;;17.58;10.38;;;7.30;99.90;;;;;;5053148;28;20681;-57
2023/12/19 06:02:56;;;;;;;10.50;8.88;;;7.30;99.90;;;;;;5053003;28;20289;-56
2023/12/19 06:05:21;;;;;;;3.50;3.10;;;7.40;99.90;;;;;;5052621;28;20174;-56
2023/12/19 06:07:47;;;;;;;4.93;3.05;;;7.10;99.90;;;;;;5052529;28;20167;-57
2023/12/19 06:10:14;;;;;;;5.85;3.55;;;7.30;99.90;;;;;;5052433;28;20181;-54
2023/12/19 06:12:40;;;;;;;5.93;3.47;;;7.40;99.90;;;;;;5052389;28;20167;-46
2023/12/19 06:15:11;;;;;;;4.03;2.90;;;7.20;99.90;;;;;;5052203;28;20206;-55
2023/12/19 06:17:43;;;;;;;3.60;3.30;;;7.50;99.90;;;;;;5052593;28;20224;-56
2023/12/19 06:20:10;;;;;;;8.10;3.35;;;7.50;99.90;;;;;;5052257;28;20174;-56
2023/12/19 06:22:36;;;;;;;4.13;3.15;;;7.40;99.90;;;;;;5051977;28;20182;-55
2023/12/19 06:25:02;;;;;;;3.72;3.42;;;7.60;99.90;;;;;;5052138;28;20203;-57
2023/12/19 06:27:28;;;;;;;3.90;3.08;;;7.30;99.90;;;;;;5052563;28;20202;-55
2023/12/19 06:29:54;;;;;;;3.33;2.85;;;7.40;99.90;;;;;;5051910;28;20565;-57
2023/12/19 06:32:20;;;;;;;4.30;3.00;;;7.40;99.90;;;;;;5052033;28;20167;-55
2023/12/19 06:34:46;;;;;;;3.90;3.15;;;7.60;99.90;;;;;;5051959;28;20202;-54
2023/12/19 06:37:11;;;;;;;4.38;3.38;;;7.50;99.90;;;;;;5051728;28;20245;-49
2023/12/19 06:39:37;;;;;;;4.45;3.33;;;7.50;99.90;;;;;;5051947;28;20167;-54
2023/12/19 06:42:03;;;;;;;3.47;2.97;;;7.40;99.90;;;;;;5051988;28;20173;-56
2023/12/19 06:44:28;;;;;;;4.53;2.78;;;7.40;99.90;;;;;;5052244;28;20194;-53
2023/12/19 06:46:54;;;;;;;4.00;3.45;;;7.60;99.90;;;;;;5051633;28;20203;-53
2023/12/19 06:49:20;;;;;;;5.80;4.53;;;7.40;99.90;;;;;;5051586;28;20219;-57
2023/12/19 06:51:45;;;;;;;4.70;3.35;;;7.30;99.90;;;;;;5051727;28;20178;-58
2023/12/19 06:54:11;;;;;;;4.28;3.70;;;7.40;99.90;;;;;;5051159;28;20226;-58
2023/12/19 06:56:37;;;;;;;5.60;3.75;;;7.20;99.90;;;;;;5051333;28;20193;-55
2023/12/19 06:59:04;;;;;;;7.95;3.75;;;7.40;99.90;;;;;;5051450;28;20182;-57
2023/12/19 07:01:29;;;;;;;5.35;3.20;;;7.30;99.90;;;;;;5051827;28;20212;-55
2023/12/19 07:03:55;;;;;;;9.85;3.33;;;7.50;99.90;;;;;;5050923;28;20166;-55
2023/12/19 07:06:21;;;;;;;3.92;3.17;;;7.40;99.90;;;;;;5051332;28;20189;-51
2023/12/19 07:08:47;;;;;;;6.05;2.95;;;7.50;99.90;;;;;;5051607;28;20186;-57
2023/12/19 07:11:14;;;;;;;3.75;2.30;;;7.20;99.90;;;;;;5051252;28;20252;-57
2023/12/19 07:13:39;;;;;;;5.30;2.95;;;7.20;99.90;;;;;;5051589;28;20206;-54
2023/12/19 07:16:06;;;;;;;8.55;2.85;;;7.40;99.90;;;;;;5051132;28;20179;-58
2023/12/19 07:18:31;;;;;;;5.00;3.38;;;7.30;99.90;;;;;;5051036;28;20630;-56
2023/12/19 07:20:57;;;;;;;3.20;2.47;;;7.60;99.90;;;;;;5051569;28;20173;-55
2023/12/19 07:23:23;;;;;;;5.32;3.40;;;7.50;99.90;;;;;;5050827;28;20173;-57
2023/12/19 07:25:48;;;;;;;4.22;2.65;;;7.60;99.90;;;;;;5051043;28;20600;-55
2023/12/19 07:28:15;;;;;;;2.88;2.63;;;7.40;99.90;;;;;;5050922;28;20250;-57
2023/12/19 07:30:41;;;;;;;5.22;2.50;;;7.60;99.90;;;;;;5050942;28;20544;-54
2023/12/19 07:33:06;;;;;;;6.47;3.50;;;7.60;99.90;;;;;;5051216;28;20163;-54
2023/12/19 07:35:32;;;;;;;9.48;4.07;;;7.60;99.90;;;;;;5050981;28;20206;-57
2023/12/19 07:37:57;;;;;;;6.97;4.70;;;7.50;99.90;;;;;;5051234;28;20159;-55
2023/12/19 07:40:23;;;;;;;9.38;5.20;;;7.50;99.90;;;;;;5050842;28;20179;-56
2023/12/19 07:42:48;;;;;;;10.27;5.30;;;7.70;99.90;;;;;;5050843;28;20264;-54
2023/12/19 07:45:15;;;;;;;13.30;4.97;;;7.60;99.90;;;;;;5050843;28;20193;-55
2023/12/19 07:47:40;;;;;;;7.53;3.58;;;7.70;99.90;;;;;;5051090;28;20252;-57
2023/12/19 07:50:07;;;;;;;4.88;2.88;;;7.70;99.90;;;;;;5051362;28;20579;-57
2023/12/19 07:52:32;;;;;;;5.60;3.70;;;7.50;99.90;;;;;;5050464;28;20560;-55
2023/12/19 07:54:58;;;;;;;4.93;2.75;;;7.60;99.90;;;;;;5050922;28;20226;-57
2023/12/19 07:57:23;;;;;;;4.85;2.40;;;7.60;99.90;;;;;;5050543;28;20621;-48
2023/12/19 07:59:49;;;;;;;6.07;2.70;;;7.70;99.90;;;;;;5050738;28;20171;-48
2023/12/19 08:02:15;;;;;;;9.73;3.88;;;7.70;99.90;;;;;;5050855;28;20170;-49
2023/12/19 08:04:44;;;;;;;12.05;5.13;;;7.60;99.90;;;;;;5050760;28;20201;-48
2023/12/19 08:07:09;;;;;;;13.65;5.57;;;7.80;99.90;;;;;;5050743;28;20163;-48
2023/12/19 08:09:35;;;;;;;8.63;3.50;;;7.70;99.90;;;;;;5050665;28;20270;-49
2023/12/19 08:12:01;;;;;;;7.10;3.90;;;7.60;99.90;;;;;;5051108;28;20174;-48
2023/12/19 08:14:27;;;;;;;12.13;4.97;;;7.60;99.90;;;;;;5051232;28;20209;-49
2023/12/19 08:16:53;;;;;;;6.32;4.03;;;7.60;99.90;;;;;;5054401;28;20181;-49
2023/12/19 08:19:18;;;;;;;6.05;2.80;;;7.80;99.90;;;;;;5054634;28;20194;-49
2023/12/19 08:21:48;;;;;;;6.15;2.85;;;7.80;99.90;;;;;;5054240;28;20248;-47
2023/12/19 08:24:14;;;;;;;5.90;3.05;;;7.90;99.90;;;;;;5054396;28;20633;-49
2023/12/19 08:26:44;;;;;;;6.70;3.25;;;7.70;99.90;;;;;;5054368;28;20177;-49
2023/12/19 08:29:10;;;;;;;9.32;4.03;;;7.80;99.90;;;;;;5054382;28;20167;-48
2023/12/19 08:31:36;;;;;;;3.88;2.22;;;7.90;99.90;;;;;;5054256;28;20170;-49
2023/12/19 08:34:03;;;;;;;8.27;3.15;;;7.90;99.90;;;;;;5053143;28;20210;-50
2023/12/19 08:36:29;;;;;;;8.63;3.00;;;7.90;99.90;;;;;;5054861;28;20247;-49
2023/12/19 08:38:54;;;;;;;6.30;3.17;;;7.90;99.90;;;;;;5054176;28;20630;-48
2023/12/19 08:41:20;;;;;;;6.97;3.33;;;7.90;99.90;;;;;;5054147;28;20167;-49
2023/12/19 08:43:46;;;;;;;6.65;3.08;;;8.00;99.90;;;;;;5054379;28;20170;-56
2023/12/19 08:46:19;;;;;;;8.25;2.75;;;8.00;99.90;;;;;;5054210;28;20178;-57
2023/12/19 08:48:47;;;;;;;7.38;2.78;;;8.00;99.90;;;;;;5053957;28;20213;-57
2023/12/19 08:51:13;;;;;;;4.47;2.65;;;8.00;99.90;;;;;;5054213;28;20170;-50
2023/12/19 08:53:39;;;;;;;6.95;2.65;;;8.10;99.90;;;;;;5053679;28;20218;-52
2023/12/19 08:56:05;;;;;;;4.57;2.30;;;8.10;99.90;;;;;;5053987;28;20665;-52
2023/12/19 08:58:31;;;;;;;3.00;2.05;;;8.10;99.90;;;;;;5054143;28;20171;-48
2023/12/19 09:00:56;;;;;;;6.25;2.58;;;8.10;99.90;;;;;;5054114;28;20662;-58
2023/12/19 09:03:23;;;;;;;10.18;2.78;;;8.30;99.90;;;;;;5053943;28;20634;-55
2023/12/19 09:05:49;;;;;;;4.53;2.10;;;8.30;99.90;;;;;;5053982;28;20174;-56
2023/12/19 09:08:15;;;;;;;4.07;2.10;;;8.40;99.90;;;;;;5053922;28;20167;-57
2023/12/19 09:10:41;;;;;;;4.40;2.70;;;8.30;99.90;;;;;;5053995;28;20240;-55
2023/12/19 09:13:07;;;;;;;3.67;2.30;;;8.30;99.90;;;;;;5053532;28;20173;-57
2023/12/19 09:15:32;;;;;;;4.55;2.38;;;8.40;99.90;;;;;;5054060;28;20198;-57
2023/12/19 09:17:58;;;;;;;8.70;2.80;;;8.50;99.90;;;;;;5054230;28;20171;-52
2023/12/19 09:20:24;;;;;;;4.68;2.58;;;8.40;99.90;;;;;;5053412;28;20254;-54
2023/12/19 09:22:50;;;;;;;4.30;2.38;;;8.50;99.90;;;;;;5051661;28;20167;-51
2023/12/19 09:25:16;;;;;;;3.17;2.17;;;8.40;99.90;;;;;;5053373;28;20271;-54
2023/12/19 09:27:42;;;;;;;4.00;2.60;;;8.40;99.90;;;;;;5052820;28;20646;-56
2023/12/19 09:30:09;;;;;;;8.13;2.53;;;8.50;99.90;;;;;;5053326;28;20163;-56
2023/12/19 09:32:37;;;;;;;4.63;2.78;;;8.50;99.90;;;;;;5053225;28;20253;-56
2023/12/19 09:35:02;;;;;;;7.78;2.70;;;8.50;99.90;;;;;;5052940;28;20213;-57
2023/12/19 09:37:28;;;;;;;4.13;2.10;;;8.50;99.90;;;;;;5053600;28;20167;-49
2023/12/19 09:39:54;;;;;;;2.75;1.83;;;8.70;99.90;;;;;;5053059;28;20277;-50
2023/12/19 09:42:19;;;;;;;8.32;2.10;;;8.70;99.90;;;;;;5053207;28;20167;-48
2023/12/19 09:44:49;;;;;;;7.82;2.28;;;8.70;99.90;;;;;;5053063;28;20209;-48
2023/12/19 09:47:25;;;;;;;6.30;2.40;;;8.70;99.90;;;;;;5053065;28;20175;-51
2023/12/19 09:50:00;;;;;;;7.30;2.28;;;8.70;99.90;;;;;;5052900;28;20166;-48
2023/12/19 09:52:27;;;;;;;5.78;2.17;;;8.80;99.90;;;;;;5052936;28;20655;-48
2023/12/19 09:54:53;;;;;;;2.72;1.85;;;8.90;99.90;;;;;;5052320;28;20305;-50
2023/12/19 09:57:20;;;;;;;3.08;1.85;;;8.80;99.90;;;;;;5052790;28;20539;-47
2023/12/19 09:59:47;;;;;;;5.90;1.95;;;8.90;99.90;;;;;;5052998;28;20557;-49
2023/12/19 10:02:14;;;;;;;6.55;1.67;;;9.00;99.90;;;;;;5052646;28;20167;-49
2023/12/19 10:04:41;;;;;;;2.30;1.65;;;9.00;99.90;;;;;;5052887;28;20214;-48
2023/12/19 10:07:06;;;;;;;6.63;1.60;;;9.00;99.90;;;;;;5052796;28;20199;-48
2023/12/19 10:09:32;;;;;;;5.07;1.77;;;9.00;99.90;;;;;;5052453;28;20209;-50
2023/12/19 10:12:11;;;;;;;5.03;1.48;;;9.10;99.90;;;;;;5052895;28;20197;-49
2023/12/19 10:14:36;;;;;;;5.20;1.50;;;9.10;99.90;;;;;;5052327;28;20209;-48
2023/12/19 10:17:04;;;;;;;3.58;1.75;;;9.10;99.90;;;;;;5052564;28;20163;-48
2023/12/19 10:19:30;;;;;;;6.63;2.97;;;9.10;99.90;;;;;;5052865;28;20171;-48
2023/12/19 10:22:10;;;;;;;3.78;1.85;;;9.20;99.90;;;;;;5052931;28;20216;-48
2023/12/19 10:24:36;;;;;;;4.38;1.95;;;9.10;99.90;;;;;;5051989;28;20378;-48
2023/12/19 10:27:03;;;;;;;7.68;1.80;;;9.10;99.90;;;;;;5052052;28;20213;-48
2023/12/19 10:29:36;;;;;;;7.20;1.75;;;9.20;99.90;;;;;;5052583;28;20205;-48
2023/12/19 10:32:13;;;;;;;4.57;2.28;;;9.10;99.90;;;;;;5052371;28;20179;-48
2023/12/19 10:34:38;;;;;;;6.60;2.10;;;9.20;99.90;;;;;;5052266;28;20221;-50
2023/12/19 10:37:17;;;;;;;3.25;1.80;;;9.20;99.90;;;;;;5051909;28;20165;-50
2023/12/19 10:39:43;;;;;;;6.95;1.75;;;9.30;99.90;;;;;;5051620;28;20243;-48
2023/12/19 10:42:09;;;;;;;2.78;2.00;;;9.20;99.90;;;;;;5051674;28;20169;-50
2023/12/19 10:44:38;;;;;;;2.15;1.80;;;9.20;99.90;;;;;;5052048;28;20178;-48
2023/12/19 10:47:06;;;;;;;3.40;1.63;;;9.20;99.90;;;;;;5051725;28;20163;-48
2023/12/19 10:49:32;;;;;;;4.28;1.80;;;9.20;99.90;;;;;;5052007;28;20174;-47
2023/12/19 10:52:04;;;;;;;8.68;1.65;;;9.20;99.90;;;;;;5051780;28;20499;-47
2023/12/19 10:54:32;;;;;;;1.65;1.27;;;9.20;99.90;;;;;;5051896;28;20301;-48
2023/12/19 10:57:16;;;;;;;8.48;1.95;;;9.30;99.90;;;;;;5051996;28;20166;-48
2023/12/19 10:59:55;;;;;;;8.82;2.22;;;9.20;99.90;;;;;;5051504;28;20178;-48
2023/12/19 11:02:48;;;;;;;5.65;2.20;;;9.30;99.90;;;;;;5051407;28;20170;-47
2023/12/19 11:05:37;;;;;;;1.98;1.60;;;9.20;99.90;;;;;;5051479;28;20162;-48
2023/12/19 11:08:07;;;;;;;4.68;1.73;;;9.30;99.90;;;;;;5051352;28;20175;-49
2023/12/19 11:10:38;;;;;;;3.80;1.73;;;9.30;99.90;;;;;;5051220;28;20165;-51
2023/12/19 11:13:04;;;;;;;5.25;2.22;;;9.30;99.90;;;;;;5051585;28;20174;-51
2023/12/19 11:15:31;;;;;;;4.53;2.17;;;9.30;99.90;;;;;;5051649;28;20198;-48
2023/12/19 11:18:14;;;;;;;4.30;2.10;;;9.30;99.90;;;;;;5051591;28;20250;-54
2023/12/19 11:20:45;;;;;;;6.53;1.95;;;9.30;99.90;;;;;;5051256;28;20171;-47
2023/12/19 11:23:16;;;;;;;6.80;1.92;;;9.30;99.90;;;;;;5050865;28;20220;-48
2023/12/19 11:25:54;;;;;;;3.50;1.65;;;9.20;99.90;;;;;;5051263;28;20194;-50
2023/12/19 11:28:19;;;;;;;7.15;2.40;;;9.20;99.90;;;;;;5051372;28;20181;-55
2023/12/19 11:30:45;;;;;;;4.53;2.13;;;9.20;99.90;;;;;;5051107;28;20247;-52
2023/12/19 11:33:13;;;;;;;5.68;2.15;;;9.30;99.90;;;;;;5051282;28;20203;-49
2023/12/19 11:35:39;;;;;;;5.75;2.08;;;9.20;99.90;;;;;;5050928;28;20202;-51
2023/12/19 11:38:14;;;;;;;6.90;2.10;;;9.20;99.90;;;;;;5050866;28;20254;-47
2023/12/19 11:40:49;;;;;;;4.00;1.52;;;9.20;99.90;;;;;;5050907;28;20197;-52
2023/12/19 11:43:27;;;;;;;3.25;1.42;;;9.20;99.90;;;;;;5050918;28;20250;-48
2023/12/19 11:46:03;;;;;;;3.28;1.77;;;9.10;99.90;;;;;;5050861;28;20755;-48
2023/12/19 11:48:49;;;;;;;3.15;1.70;;;9.10;99.90;;;;;;5051452;28;20178;-49
2023/12/19 11:51:43;;;;;;;3.92;1.85;;;9.10;99.90;;;;;;5049318;28;20261;-47
2023/12/19 11:54:15;;;;;;;6.47;2.03;;;9.00;99.90;;;;;;5030761;28;20648;-50
2023/12/19 11:56:41;;;;;;;4.20;1.63;;;9.00;99.90;;;;;;5031054;28;20186;-50
2023/12/19 11:59:08;;;;;;;5.32;1.83;;;9.10;99.90;;;;;;5031037;28;20642;-48
2023/12/19 12:01:41;;;;;;;6.45;2.30;;;9.00;99.90;;;;;;5031099;28;20179;-48
2023/12/19 12:04:08;;;;;;;2.60;1.67;;;9.00;99.90;;;;;;5031059;28;20179;-48
2023/12/19 12:06:35;;;;;;;5.75;1.90;;;9.10;99.90;;;;;;5030964;28;20167;-48
2023/12/19 12:09:03;;;;;;;4.35;1.80;;;9.00;99.90;;;;;;5030621;28;20707;-50
2023/12/19 12:11:29;;;;;;;7.20;1.90;;;9.00;99.90;;;;;;5031060;28;20175;-48
2023/12/19 12:14:03;;;;;;;2.97;1.70;;;9.00;99.90;;;;;;5030627;28;20225;-48
2023/12/19 12:16:39;;;;;;;6.30;1.67;;;9.00;99.90;;;;;;5031269;28;20181;-49
2023/12/19 12:19:11;;;;;;;6.35;2.30;;;9.00;99.90;;;;;;5030521;28;20639;-48
2023/12/19 12:21:42;;;;;;;4.78;1.70;;;9.10;99.90;;;;;;5035823;28;20594;-53
2023/12/19 12:24:07;;;;;;;2.17;0.90;;;9.00;99.90;;;;;;5050534;28;20300;-49
2023/12/19 12:26:33;;;;;;;6.25;1.70;;;9.00;99.90;;;;;;5050092;28;20666;-48
2023/12/19 12:28:58;;;;;;;3.28;1.88;;;9.10;99.90;;;;;;5050888;28;20599;-48
2023/12/19 12:31:24;;;;;;;2.70;1.65;;;9.00;99.90;;;;;;5050414;28;20577;-48
2023/12/19 12:33:51;;;;;;;6.28;1.83;;;9.00;99.90;;;;;;5050183;28;20662;-52
2023/12/19 12:36:17;;;;;;;2.65;1.83;;;9.10;99.90;;;;;;5050446;28;20162;-47
2023/12/19 12:38:43;;;;;;;5.00;2.00;;;9.10;99.90;;;;;;5050502;28;20228;-54
2023/12/19 12:41:09;;;;;;;5.28;1.98;;;9.10;99.90;;;;;;5050352;28;20618;-49
2023/12/19 12:43:39;;;;;;;16.17;2.20;;;9.10;99.90;;;;;;5050471;28;20163;-57
2023/12/19 12:46:07;;;;;;;5.70;2.40;;;9.10;99.90;;;;;;5050603;28;20170;-57
2023/12/19 12:48:33;;;;;;;6.30;1.73;;;9.00;99.90;;;;;;5050531;28;20175;-57
2023/12/19 12:50:59;;;;;;;3.35;1.58;;;9.00;99.90;;;;;;5050421;28;20183;-52
2023/12/19 12:53:25;;;;;;;4.57;2.38;;;9.10;99.90;;;;;;5049637;28;20210;-55